LIVE Streaming HD
Get Adobe Flash player
Dati meteo stazione (refresh automatico ogni minuto)
Ostia(RM) VENTO: VELOCITÀ   PIOGGIA: QTA GIORNO TEMPERATURA: ATTUALE
SPOT: Kursaal Lido Ostia ---- Posizione su Googlemap:Latitudine: 41.71N Longitudine: 12.31E RAFFICA MASSIMA: QTA MENSILE: MASSIMA:
VELOCITÀ MEDIA: QTA ANNUALE: MINIMA:
DIREZIONE: UMIDITÀ: WIND CHILL:
TIPO: DEW POINT:
BEAUFORT: PRESSIONE:
I nostri partner
Ostia(RM) nelle ultime ore
Applica filtri in visualizzazione Intervallo delle letture nelle ultime

Ora Direzione Vento Velocita' Vento Media Vento Raffica Max. Temperatura Wind Chill Pioggia Pressione
08:59:19109 °(ESE)10.6 Kts5.73 Kts12.7 Kts16.6 °C15.83 °C0.27 mm1012.2 Hpa
08:53:58110 °(ESE)5.9 Kts5 Kts12.7 Kts16.2 °C15.96 °C0.27 mm1013.5 Hpa
08:49:0386 °(E)5 Kts4.2 Kts12.7 Kts15.6 °C15.5 °C0.27 mm1013.4 Hpa
08:44:0984 °(E)3.5 Kts6.33 Kts12.7 Kts15.3 °C15.57 °C0.27 mm1013.3 Hpa
08:37:1292 °(E)4 Kts6.63 Kts12.7 Kts15.1 °C15.13 °C0.27 mm1013.3 Hpa
08:34:1590 °(E)5 Kts4.4 Kts12.7 Kts15 °C14.79 °C0.27 mm1013.6 Hpa
08:29:23124 °(SE)6 Kts8.66 Kts12.7 Kts14.8 °C14.28 °C0.27 mm1013.2 Hpa
08:24:0274 °(ENE)2.3 Kts5.76 Kts12.7 Kts14.8 °C15.44 °C0.27 mm1014.1 Hpa
08:19:1092 °(E)4.4 Kts5.93 Kts12.7 Kts14.8 °C14.67 °C0.27 mm1013.2 Hpa
08:14:20103 °(ESE)3.9 Kts6.03 Kts12.7 Kts14.6 °C14.6 °C0.27 mm1013.2 Hpa
08:08:5686 °(E)0 Kts6.33 Kts12.7 Kts14.6 °C22.19 °C0.27 mm1012.7 Hpa
08:04:0297 °(E)3.7 Kts3.86 Kts12.7 Kts14.6 °C14.72 °C0.27 mm1013.2 Hpa
07:59:0692 °(E)7.7 Kts6.56 Kts12.7 Kts14.5 °C13.59 °C0.27 mm1012.7 Hpa
07:54:1399 °(E)4.3 Kts7.83 Kts12.7 Kts14.3 °C14.08 °C0.27 mm1012.7 Hpa
07:49:21115 °(ESE)4.7 Kts4.03 Kts12.7 Kts14.3 °C14.03 °C0.27 mm1012.2 Hpa
07:43:59107 °(ESE)3.4 Kts4.5 Kts12.7 Kts14.3 °C14.42 °C0.27 mm1013.5 Hpa
07:39:09103 °(ESE)11.4 Kts4.13 Kts12.7 Kts14.1 °C12.58 °C0.27 mm1011.8 Hpa
07:33:2283 °(E)3.4 Kts3.2 Kts12.7 Kts14.1 °C14.19 °C0.27 mm1013 Hpa
07:29:2394 °(E)4.1 Kts5.5 Kts12.7 Kts14.1 °C13.97 °C0.27 mm1012.2 Hpa
07:24:0061 °(ENE)0 Kts5.23 Kts12.7 Kts14.1 °C21.88 °C0.27 mm1011.8 Hpa
07:19:1191 °(E)5.3 Kts4.9 Kts12.7 Kts14.1 °C13.62 °C0.27 mm1012.2 Hpa
07:14:2282 °(E)5.3 Kts4.03 Kts12.7 Kts14.1 °C13.62 °C0.27 mm1012.2 Hpa
07:09:0388 °(E)3.5 Kts7.03 Kts12.7 Kts14.1 °C14.19 °C0.27 mm1013 Hpa
07:04:11101 °(E)2.9 Kts7.83 Kts12.7 Kts14.1 °C14.43 °C0.27 mm1012.6 Hpa